Date,TemperatureHighF,TemperatureAvgF,TemperatureLowF,DewpointHighF,DewpointAvgF,DewpointLowF,HumidityHigh,HumidityAvg,HumidityLow,PressureMaxIn,PressureMinIn,WindSpeedMaxMPH,WindSpeedAvgMPH,GustSpeedMaxMPH,PrecipitationSumIn
2013-1-1,40.0,37.2,28.0,28.0,23.0,11.0,64,57,43,29.98,29.80,11,4,18,0.03
2013-1-2,34.0,28.3,24.0,15.0,11.3,9.0,54,48,38,30.15,29.97,13,4,18,0.01
2013-1-3,34.0,29.9,25.0,17.0,14.6,12.0,66,53,41,30.17,30.04,10,2,13,0.00
2013-1-4,39.0,35.0,31.0,22.0,19.8,18.0,61,54,44,30.06,29.93,17,4,18,0.00
2013-1-5,44.0,37.1,32.0,22.0,19.4,16.0,56,49,38,30.24,29.98,14,3,17,0.00
2013-1-6,47.0,39.7,34.0,32.0,26.4,22.0,85,60,42,30.18,29.93,9,3,13,0.00
2013-1-7,46.0,40.1,34.0,29.0,23.6,17.0,72,53,34,30.37,30.00,14,2,14,0.00
2013-1-8,41.0,34.3,32.0,29.0,24.8,22.0,73,69,58,30.36,30.32,4,1,8,0.00
2013-1-9,47.0,39.7,32.0,36.0,30.9,27.0,84,71,58,30.35,30.12,10,2,15,0.00
2013-1-10,49.0,44.0,40.0,32.0,23.5,21.0,58,45,34,30.53,30.19,11,4,17,0.00
2013-1-11,45.0,40.8,37.0,42.0,31.2,23.0,93,70,53,30.53,30.07,6,1,8,0.55
2013-1-12,47.0,45.1,42.0,45.0,42.9,40.0,94,92,89,30.15,30.04,5,1,9,0.51
2013-1-13,48.0,45.7,44.0,46.0,43.9,43.0,95,93,90,30.13,29.99,9,1,10,0.02
2013-1-14,56.0,50.5,41.0,53.0,42.4,28.0,95,76,45,30.26,29.88,10,3,13,0.10
2013-1-15,39.0,37.8,36.0,35.0,26.6,24.0,88,64,56,30.32,30.19,7,3,14,0.22
2013-1-16,37.0,34.1,32.0,34.0,31.5,29.0,93,90,74,30.20,29.78,9,2,14,0.66
2013-1-17,44.0,39.9,37.0,34.0,27.6,23.0,86,62,48,30.06,29.89,16,3,16,0.12
2013-1-18,36.0,29.8,27.0,24.0,9.1,0.0,61,43,27,30.43,29.98,11,5,17,0.01
2013-1-19,51.0,39.8,29.0,27.0,21.0,10.0,65,48,32,30.37,29.89,17,6,21,0.00
2013-1-20,55.0,43.4,31.0,29.0,21.3,8.0,69,44,20,30.00,29.65,16,6,25,0.00
2013-1-21,32.0,29.5,26.0,16.0,10.0,6.0,59,43,36,30.07,29.81,10,3,13,0.00
2013-1-22,28.0,20.8,14.0,14.0,-0.2,-10.0,66,40,23,30.18,29.81,17,7,25,0.00
2013-1-23,20.0,15.6,12.0,0.0,-5.8,-10.0,51,38,27,30.23,30.14,13,5,17,0.00
2013-1-24,24.0,18.1,13.0,3.0,-2.0,-8.0,61,42,23,30.37,30.11,14,6,23,0.00
2013-1-25,24.0,18.4,14.0,15.0,3.7,-5.0,81,54,35,30.39,30.04,13,3,18,0.00
2013-1-26,28.0,21.2,16.0,13.0,7.4,3.0,79,56,35,30.35,30.02,14,5,18,0.02
2013-1-27,35.0,26.7,19.0,11.0,8.1,5.0,62,47,29,30.49,30.34,14,3,16,0.01
2013-1-28,36.0,31.8,26.0,33.0,25.0,12.0,91,77,51,30.44,29.98,8,3,11,0.14
2013-1-29,55.0,42.9,36.0,43.0,37.8,33.0,92,83,56,30.12,29.98,10,2,11,0.07
2013-1-30,60.0,47.0,40.0,56.0,44.8,38.0,95,92,86,30.07,29.35,10,1,17,0.10
2013-1-31,60.0,41.0,30.0,57.0,20.0,7.0,90,44,29,29.75,29.24,28,11,29,0.78
2013-2-1,32.0,28.5,24.0,15.0,9.4,1.0,63,45,27,30.20,29.75,15,6,23,0.01
2013-2-2,30.0,24.9,19.0,20.0,7.3,1.0,82,48,29,30.28,30.03,12,4,17,0.00
2013-2-3,31.0,26.8,24.0,21.0,18.6,15.0,86,72,54,30.03,29.78,8,2,11,0.01
2013-2-4,32.0,27.6,23.0,19.0,9.1,5.0,69,46,34,29.94,29.78,14,5,18,0.01
2013-2-5,31.0,29.4,27.0,27.0,23.6,10.0,86,79,47,29.94,29.86,8,2,10,0.01
2013-2-6,39.0,33.7,29.0,28.0,20.1,1.0,90,61,30,30.34,29.89,12,4,18,0.01
2013-2-7,32.0,29.2,25.0,21.0,8.7,3.0,64,42,32,30.47,30.30,6,2,10,0.01
2013-2-8,34.0,32.5,28.0,31.0,28.0,21.0,93,84,63,30.30,29.63,18,6,25,0.16
2013-2-9,33.0,28.2,22.0,27.0,16.6,6.0,93,64,35,30.30,29.72,17,7,23,0.07
2013-2-10,34.0,26.5,16.0,22.0,12.7,6.0,68,56,41,30.46,30.29,10,2,10,0.24
2013-2-11,42.0,36.8,31.0,41.0,33.0,21.0,95,87,65,30.30,29.63,5,0,9,0.33
2013-2-12,45.0,41.0,36.0,41.0,26.0,23.0,95,56,43,29.93,29.69,17,5,22,0.01
2013-2-13,43.0,37.0,30.0,32.0,24.7,21.0,88,62,43,29.93,29.66,8,1,10,0.02
2013-2-14,47.0,39.5,33.0,32.0,28.0,21.0,90,66,36,29.97,29.69,8,2,14,0.02
2013-2-15,56.0,43.5,35.0,37.0,31.6,25.0,82,64,37,29.98,29.87,10,3,17,0.00
2013-2-16,42.0,36.3,32.0,34.0,26.3,13.0,89,68,47,29.93,29.72,12,4,17,0.06
2013-2-17,33.0,27.6,18.0,13.0,3.2,-2.0,47,35,25,29.98,29.64,20,11,29,0.01
2013-2-18,36.0,26.8,17.0,10.0,3.3,-2.0,48,37,24,30.22,29.98,17,6,26,0.00
2013-2-19,49.0,38.7,28.0,43.0,27.5,9.0,90,66,38,30.18,29.64,17,4,20,0.23
2013-2-20,38.0,31.4,26.0,26.0,12.4,7.0,61,45,34,29.95,29.69,17,8,24,0.04
2013-2-21,35.0,28.7,25.0,12.0,10.3,7.0,57,46,37,30.23,29.95,20,9,29,0.00
2013-2-22,38.0,32.0,24.0,31.0,20.5,12.0,75,62,48,30.38,30.23,9,3,15,0.00
2013-2-23,42.0,38.5,37.0,40.0,35.9,31.0,94,91,75,30.24,29.78,13,3,16,0.34
2013-2-24,49.0,39.4,34.0,39.0,30.2,20.0,93,72,48,29.93,29.72,19,6,23,0.02
2013-2-25,45.0,38.8,31.0,27.0,24.4,20.0,73,56,44,30.20,29.92,10,3,15,0.00
2013-2-26,45.0,39.2,34.0,34.0,29.1,25.0,89,67,56,30.25,29.88,15,4,19,0.12
2013-2-27,47.0,42.2,37.0,45.0,38.2,34.0,97,86,69,29.87,29.48,19,5,24,1.15
2013-2-28,51.0,44.5,39.0,37.0,32.4,26.0,79,63,46,29.61,29.52,9,2,12,0.01
2013-3-1,46.0,40.2,36.0,30.0,27.4,24.0,75,61,44,29.75,29.58,13,6,19,0.00
2013-3-2,41.0,36.4,32.0,25.0,22.5,21.0,70,57,46,29.76,29.67,11,5,16,0.00
2013-3-3,40.0,33.2,29.0,22.0,17.0,14.0,67,51,38,29.74,29.63,15,7,17,0.00
2013-3-4,42.0,34.2,28.0,19.0,16.7,13.0,62,49,37,29.89,29.74,16,8,21,0.00
2013-3-5,49.0,39.6,31.0,29.0,22.4,18.0,63,51,37,29.98,29.89,11,4,17,0.00
2013-3-6,42.0,40.2,38.0,35.0,30.0,25.0,78,67,56,29.96,29.82,26,11,30,0.00
2013-3-7,39.0,36.9,33.0,34.0,29.2,25.0,92,75,57,30.07,29.89,17,7,23,0.24
2013-3-8,40.0,34.6,32.0,34.0,31.1,30.0,92,87,71,30.16,29.98,13,4,19,0.57
2013-3-9,54.0,42.8,32.0,30.0,23.1,15.0,75,50,22,30.27,30.16,10,4,14,0.55
2013-3-10,48.0,39.7,32.0,34.0,32.2,29.0,88,75,55,30.36,30.27,11,2,13,0.01
2013-3-11,52.0,45.4,39.0,45.0,40.4,34.0,90,83,70,30.30,30.07,11,3,13,0.00
2013-3-12,57.0,49.9,45.0,56.0,46.3,36.0,95,88,69,30.08,29.64,11,4,17,0.96
2013-3-13,50.0,43.9,39.0,36.0,28.1,19.0,76,56,29,29.87,29.77,11,4,20,0.96
2013-3-14,41.0,35.7,30.0,24.0,10.4,3.0,58,36,20,29.94,29.81,19,10,27,0.01
2013-3-15,47.0,38.6,30.0,29.0,17.1,4.0,56,42,28,29.95,29.66,13,6,17,0.00
2013-3-16,43.0,36.4,33.0,31.0,24.6,17.0,87,64,43,29.89,29.75,10,2,13,0.03
2013-3-17,39.0,34.1,29.0,29.0,16.7,10.0,83,51,33,30.28,29.89,14,5,17,0.01
2013-3-18,37.0,31.8,27.0,31.0,17.5,5.0,92,58,37,30.38,30.00,10,4,13,0.00
2013-3-19,44.0,38.0,33.0,37.0,33.2,27.0,96,83,63,30.01,29.68,15,5,18,1.01
2013-3-20,47.0,39.2,32.0,27.0,16.8,12.0,63,41,27,29.86,29.76,15,5,21,0.01
2013-3-21,40.0,35.2,32.0,28.0,15.1,6.0,80,45,28,29.80,29.61,16,5,16,0.00
2013-3-22,42.0,35.3,29.0,21.0,14.9,10.0,60,44,32,29.84,29.71,17,5,21,0.00
2013-3-23,47.0,39.4,33.0,22.0,17.4,14.0,56,42,28,29.90,29.78,21,7,24,0.00
2013-3-24,48.0,40.1,33.0,27.0,19.2,16.0,57,44,31,29.92,29.68,13,4,17,0.00
2013-3-25,40.0,38.6,36.0,35.0,29.1,22.0,88,70,49,29.70,29.44,17,4,23,0.11
2013-3-26,53.0,43.6,37.0,32.0,26.7,21.0,78,54,29,29.83,29.57,11,4,13,0.06
2013-3-27,53.0,44.3,36.0,29.0,23.6,17.0,58,45,25,29.93,29.82,17,6,19,0.00
2013-3-28,50.0,44.4,38.0,31.0,28.0,26.0,70,53,39,30.07,29.93,12,5,16,0.00
2013-3-29,55.0,47.0,39.0,29.0,26.1,21.0,63,46,27,30.12,30.01,14,4,18,0.00
2013-3-30,60.0,49.1,39.0,30.0,23.8,12.0,63,41,16,30.14,30.03,10,2,13,0.00
2013-3-31,54.0,46.3,38.0,44.0,32.4,-99.9,92,62,39,30.09,29.66,10,3,14,0.13
2013-4-1,64.0,49.5,39.0,45.0,36.3,9.0,93,65,29,29.88,29.58,16,5,24,0.14
2013-4-2,45.0,38.8,33.0,16.0,10.4,7.0,44,31,22,30.04,29.88,18,6,21,0.01
2013-4-3,47.0,39.5,33.0,13.0,8.9,6.0,41,28,19,30.27,30.04,16,6,22,0.00
2013-4-4,54.0,42.0,33.0,31.0,18.8,11.0,56,40,24,30.37,30.07,12,4,17,0.00
2013-4-5,64.0,49.7,41.0,29.0,22.3,14.0,59,38,15,30.07,29.69,17,5,20,0.00
2013-4-6,53.0,43.7,35.0,30.0,15.8,4.0,57,35,15,30.27,29.96,15,5,23,0.00
2013-4-7,58.0,48.4,40.0,43.0,33.8,25.0,69,58,35,30.27,29.97,14,5,20,0.00
2013-4-8,74.0,58.9,48.0,45.0,41.7,36.0,80,56,26,30.04,29.93,12,3,15,0.00
2013-4-9,83.0,68.1,53.0,50.0,41.7,32.0,80,46,16,29.97,29.88,11,3,21,0.00
2013-4-10,75.0,64.2,56.0,55.0,48.3,40.0,90,58,37,29.93,29.79,10,2,22,0.59
2013-4-11,61.0,55.8,49.0,58.0,49.1,39.0,95,79,62,30.01,29.75,11,4,18,0.61
2013-4-12,49.0,43.9,42.0,42.0,39.6,38.0,91,85,68,30.00,29.69,17,6,19,0.54
2013-4-13,59.0,49.3,40.0,40.0,35.7,31.0,91,63,36,29.94,29.71,9,3,16,0.06
2013-4-14,58.0,52.7,46.0,42.0,31.7,23.0,76,48,27,30.18,29.93,18,4,23,0.00
2013-4-15,56.0,49.7,45.0,41.0,29.6,24.0,76,47,31,30.35,30.18,10,3,13,0.00
2013-4-16,64.0,55.9,48.0,54.0,47.2,40.0,81,73,65,30.35,30.09,14,5,20,0.00
2013-4-17,72.0,62.7,56.0,55.0,42.2,27.0,78,51,20,30.27,30.08,10,3,13,0.00
2013-4-18,58.0,54.1,52.0,51.0,43.0,36.0,91,67,45,30.32,30.09,12,4,17,0.03
2013-4-19,73.0,62.2,53.0,63.0,57.1,51.0,95,84,67,30.09,29.62,17,4,19,0.07
2013-4-20,64.0,54.6,50.0,61.0,33.4,22.0,89,49,26,30.25,29.64,14,6,20,0.18
2013-4-21,54.0,46.1,37.0,31.0,21.0,14.0,56,38,22,30.58,30.24,14,4,17,0.01
2013-4-22,52.0,47.8,41.0,36.0,30.7,25.0,69,52,35,30.62,30.45,16,5,17,0.00
2013-4-23,52.0,45.8,41.0,40.0,35.9,31.0,87,68,59,30.45,30.09,10,5,14,0.00
2013-4-24,68.0,54.7,42.0,51.0,43.6,37.0,84,67,44,30.10,29.80,10,3,13,0.00
2013-4-25,66.0,57.1,47.0,52.0,30.8,19.0,79,40,16,30.24,29.83,16,6,22,0.00
2013-4-26,67.0,56.5,45.0,38.0,30.9,19.0,67,41,17,30.38,30.24,12,2,14,0.00
2013-4-27,72.0,58.4,46.0,32.0,27.7,24.0,50,33,17,30.40,30.27,9,3,13,0.00
2013-4-28,68.0,57.6,48.0,41.0,32.6,-99.9,58,41,24,30.29,30.18,14,3,17,0.00
2013-4-29,57.0,54.5,53.0,50.0,46.9,39.0,86,76,51,30.21,30.16,10,2,13,0.16
2013-4-30,66.0,57.1,51.0,49.0,37.3,22.0,90,54,22,30.32,30.18,10,3,17,0.01
2013-5-1,67.0,55.8,46.0,44.0,36.0,24.0,69,49,22,30.46,30.30,11,3,16,0.01
2013-5-2,70.0,58.4,46.0,46.0,41.9,39.0,85,57,34,30.45,30.31,10,2,12,0.00
2013-5-3,64.0,56.2,50.0,44.0,38.3,31.0,78,52,33,30.43,30.34,11,4,17,0.00
2013-5-4,67.0,54.5,46.0,45.0,41.4,36.0,86,64,33,30.35,30.24,11,3,16,0.00
2013-5-5,61.0,52.0,46.0,43.0,39.4,35.0,77,63,42,30.27,30.21,10,3,12,0.00
2013-5-6,66.0,55.9,47.0,49.0,45.8,41.0,81,70,54,30.24,30.15,9,2,12,0.00
2013-5-7,74.0,62.3,51.0,58.0,52.6,46.0,86,71,53,30.15,30.08,8,3,12,0.00
2013-5-8,66.0,61.1,57.0,61.0,56.6,51.0,94,86,74,30.09,29.96,10,3,12,1.53
2013-5-9,68.0,59.8,54.0,58.0,54.2,51.0,94,83,57,29.99,29.88,6,1,10,0.98
2013-5-10,81.0,65.5,55.0,57.0,52.2,-99.9,92,68,36,29.97,29.86,9,2,15,0.01
2013-5-11,73.0,65.6,63.0,63.0,61.0,56.0,92,85,67,29.87,29.66,10,3,18,0.45
2013-5-12,69.0,62.2,53.0,61.0,38.2,-99.9,91,47,20,29.90,29.62,18,6,23,0.01
2013-5-13,57.0,51.6,46.0,32.0,26.2,22.0,55,38,26,30.07,29.90,13,5,20,0.01
2013-5-14,63.0,52.9,42.0,33.0,25.3,17.0,65,38,17,30.09,29.98,12,4,15,0.00
2013-5-15,71.0,61.1,51.0,57.0,45.4,25.0,72,57,31,30.03,29.65,12,3,15,0.00
2013-5-16,82.0,65.5,60.0,57.0,30.3,-99.9,82,52,28,29.80,29.68,12,2,17,0.00
2013-5-17,74.0,66.0,59.0,42.0,34.2,-99.9,50,35,25,30.16,29.80,12,4,17,0.00
2013-5-18,65.0,59.9,57.0,54.0,48.3,41.0,82,66,46,30.28,30.16,5,1,9,0.01
2013-5-19,59.0,57.5,56.0,57.0,54.7,50.0,96,91,72,30.29,30.15,10,3,14,0.49
2013-5-20,80.0,69.0,58.0,65.0,61.4,57.0,96,79,55,30.15,29.94,10,2,11,0.03
2013-5-21,90.0,77.7,67.0,68.0,65.5,63.0,90,68,45,29.95,29.82,9,3,17,0.00
2013-5-22,79.0,71.5,61.0,68.0,63.9,57.0,88,77,67,29.90,29.80,8,2,10,0.00
2013-5-23,83.0,73.7,67.0,69.0,66.4,63.0,92,79,53,29.85,29.72,13,4,23,0.79
2013-5-24,67.0,57.1,46.0,64.0,52.9,41.0,92,86,71,29.93,29.65,16,5,17,0.87
2013-5-25,55.0,50.4,46.0,44.0,40.7,36.0,89,71,50,30.00,29.88,20,8,29,0.34
2013-5-26,69.0,58.5,48.0,38.0,34.0,29.0,64,42,23,30.17,29.93,17,7,26,0.01
2013-5-27,77.0,63.3,47.0,39.0,35.3,30.0,68,38,21,30.21,30.09,10,2,14,0.00
2013-5-28,69.0,60.4,56.0,57.0,49.1,39.0,94,69,37,30.19,30.10,5,1,10,0.62
2013-5-29,88.0,74.2,60.0,66.0,62.1,59.0,95,70,42,30.07,29.97,13,2,14,0.06
2013-5-30,94.0,84.2,73.0,66.0,62.2,58.0,78,51,31,30.09,30.04,8,3,12,0.00
2013-5-31,94.0,84.9,74.0,68.0,62.2,53.0,75,49,27,30.10,29.97,11,2,15,0.00
2013-6-1,93.0,83.4,73.0,68.0,64.0,59.0,78,54,34,30.00,29.88,17,4,17,0.00
2013-6-2,90.0,82.2,73.0,70.0,64.4,-99.9,85,59,37,29.90,29.76,11,4,23,0.45
2013-6-3,79.0,72.6,69.0,69.0,66.0,45.0,91,81,54,29.85,29.77,10,3,19,1.40
2013-6-4,77.0,67.8,57.0,46.0,41.4,37.0,58,40,27,30.09,29.85,14,4,17,0.07
2013-6-5,74.0,65.6,55.0,55.0,42.8,37.0,80,45,30,30.18,30.09,14,4,17,0.00
2013-6-6,70.0,64.3,59.0,59.0,55.9,48.0,89,76,45,30.12,29.99,10,4,16,0.14
2013-6-7,64.0,61.8,60.0,62.0,59.7,58.0,95,93,87,29.99,29.61,10,4,16,3.31
2013-6-8,77.0,68.0,57.0,62.0,59.3,55.0,95,75,56,30.02,29.55,12,4,17,1.25
2013-6-9,83.0,73.5,62.0,62.0,56.9,53.0,88,59,36,30.14,30.01,8,2,11,0.01
2013-6-10,71.0,67.7,64.0,65.0,62.7,60.0,94,84,71,30.13,29.81,14,2,17,0.97
2013-6-11,81.0,73.4,64.0,68.0,63.5,57.0,95,73,51,29.81,29.59,15,4,17,0.75
2013-6-12,80.0,72.4,66.0,59.0,53.2,50.0,71,52,37,29.82,29.68,17,6,19,0.01
2013-6-13,67.0,64.3,57.0,61.0,57.3,53.0,93,79,61,29.81,29.43,15,4,21,0.95
2013-6-14,73.0,61.9,54.0,57.0,52.6,49.0,93,74,48,29.85,29.49,12,4,19,0.86
2013-6-15,83.0,72.2,60.0,56.0,51.7,45.0,82,53,27,29.98,29.85,11,3,13,0.01
2013-6-16,84.0,73.8,63.0,64.0,55.5,47.0,72,54,31,29.96,29.75,17,3,19,0.00
2013-6-17,87.0,76.8,68.0,67.0,63.0,58.0,85,65,40,29.88,29.81,10,3,20,0.09
2013-6-18,85.0,72.0,64.0,68.0,63.3,60.0,91,75,47,29.87,29.79,10,2,13,0.31
2013-6-19,79.0,69.2,59.0,63.0,51.7,40.0,91,59,27,30.13,29.85,12,4,16,0.18
2013-6-20,80.0,69.7,61.0,57.0,52.9,50.0,75,57,36,30.23,30.13,10,2,13,0.00
2013-6-22,86.0,78.7,73.0,60.0,57.0,51.0,59,48,32,30.22,30.11,11,4,16,0.00
2013-6-23,91.0,78.7,69.0,72.0,64.9,59.0,83,64,42,30.16,30.04,10,3,13,0.02
2013-6-24,96.0,83.4,74.0,71.0,66.7,57.0,88,61,27,30.06,29.93,10,3,13,0.02
2013-6-25,94.0,81.9,72.0,69.0,65.6,61.0,77,59,37,29.98,29.80,21,4,21,0.01
2013-6-26,88.0,80.6,74.0,71.0,65.6,62.0,83,62,44,29.83,29.76,10,3,10,0.01
2013-6-27,88.0,78.8,74.0,73.0,69.0,66.0,92,73,48,29.80,29.53,16,3,19,0.43
2013-6-28,88.0,80.0,74.0,72.0,67.7,63.0,91,69,44,29.54,29.45,10,4,18,0.43
2013-6-29,86.0,78.2,71.0,71.0,66.2,62.0,84,68,44,29.67,29.46,11,3,14,0.00
2013-6-30,87.0,77.7,74.0,73.0,70.8,69.0,88,80,58,29.88,29.67,15,3,15,0.00
2013-7-1,77.0,75.0,73.0,73.0,71.4,69.0,93,88,83,30.02,29.87,8,2,10,1.26
2013-7-2,84.0,77.7,74.0,73.0,71.3,70.0,91,81,63,30.16,30.02,10,3,13,0.06
2013-7-3,87.0,78.9,74.0,75.0,71.3,68.0,88,78,58,30.22,30.15,8,3,10,0.07
2013-7-4,91.0,83.5,77.0,74.0,71.1,68.0,88,68,49,30.23,30.14,16,4,16,0.01
2013-7-5,93.0,84.9,76.0,72.0,69.8,66.0,87,62,43,30.19,30.08,10,3,11,0.00
2013-7-6,95.0,86.5,78.0,72.0,69.7,65.0,80,59,38,30.13,30.01,10,4,12,0.00
2013-7-7,96.0,87.9,80.0,72.0,69.0,64.0,76,55,38,30.04,29.92,10,4,15,0.00
2013-7-8,92.0,80.8,73.0,68.0,65.5,63.0,79,62,40,30.02,29.95,10,3,13,0.00
2013-7-9,92.0,82.9,75.0,70.0,65.8,63.0,75,58,41,30.04,29.96,12,3,12,0.01
2013-7-10,89.0,81.2,76.0,75.0,67.3,-99.9,82,66,50,30.00,29.79,15,4,15,0.05
2013-7-11,87.0,81.5,77.0,73.0,67.4,60.0,85,64,45,29.89,29.78,9,3,10,0.07
2013-7-12,78.0,74.4,69.0,69.0,63.6,60.0,90,70,58,30.06,29.89,11,4,15,0.11
2013-7-13,81.0,74.2,68.0,75.0,70.3,66.0,94,88,74,30.25,30.06,9,2,14,0.35
2013-7-14,93.0,83.7,75.0,74.0,71.0,65.0,93,68,40,30.30,30.22,10,2,14,0.02
2013-7-15,97.0,85.2,79.0,71.0,69.7,68.0,77,61,39,30.23,30.15,9,2,11,0.00
2013-7-16,94.0,87.6,77.0,67.0,63.5,60.0,69,46,32,30.17,30.11,13,3,14,0.00
2013-7-17,97.0,86.5,78.0,70.0,67.6,61.0,72,55,32,30.16,30.05,9,2,10,0.00
2013-7-18,100.0,90.3,82.0,73.0,68.6,60.0,65,51,27,30.06,29.93,9,3,12,0.00
2013-7-19,99.0,91.4,83.0,74.0,72.4,68.0,72,55,38,29.95,29.78,13,4,19,0.00
2013-7-20,94.0,86.3,81.0,74.0,68.5,-99.9,68,57,43,29.81,29.71,11,4,17,0.04
2013-7-21,89.0,81.5,77.0,72.0,64.5,55.0,83,58,36,29.93,29.80,10,3,10,0.07
2013-7-22,84.0,78.8,76.0,74.0,70.7,66.0,92,77,65,29.93,29.79,8,2,10,0.13
2013-7-23,90.0,80.1,73.0,74.0,70.7,67.0,93,75,50,29.79,29.54,10,3,11,0.43
2013-7-24,84.0,78.4,70.0,68.0,62.5,52.0,77,59,46,29.90,29.59,12,4,13,0.01
2013-7-25,70.0,66.2,64.0,58.0,52.6,47.0,72,62,52,30.02,29.90,12,4,15,0.00
2013-7-26,84.0,74.3,66.0,64.0,57.7,54.0,75,59,37,30.02,29.97,8,3,10,0.00
2013-7-27,83.0,75.4,67.0,65.0,62.6,57.0,86,66,41,30.03,29.93,14,4,16,0.01
2013-7-28,78.0,73.8,70.0,71.0,67.6,64.0,92,81,68,29.96,29.89,11,3,16,0.55
2013-7-29,86.0,76.8,69.0,70.0,61.6,46.0,93,64,27,30.08,29.92,10,2,12,0.55
2013-7-30,83.0,74.0,63.0,57.0,54.4,52.0,75,52,38,30.14,30.07,8,3,10,0.00
2013-7-31,84.0,75.0,64.0,61.0,57.4,53.0,78,56,34,30.13,30.01,12,3,13,0.00
2013-8-1,75.0,71.2,68.0,69.0,64.6,62.0,93,80,63,30.01,29.80,10,2,11,0.87
2013-8-2,86.0,76.1,66.0,69.0,61.5,55.0,94,65,37,29.88,29.76,10,3,16,0.11
2013-8-3,79.0,73.4,70.0,66.0,61.9,57.0,85,68,54,29.88,29.81,10,3,12,0.04
2013-8-4,82.0,73.5,65.0,62.0,54.6,48.0,84,54,34,29.94,29.83,12,4,16,0.01
2013-8-5,80.0,71.2,62.0,51.0,47.2,41.0,68,44,28,30.03,29.93,10,3,18,0.00
2013-8-6,83.0,72.4,61.0,60.0,53.7,48.0,77,54,31,30.09,30.00,12,3,16,0.00
2013-8-7,80.0,73.8,70.0,68.0,63.2,60.0,81,70,59,30.11,30.03,10,4,17,0.00
2013-8-8,82.0,74.6,70.0,74.0,69.4,66.0,93,84,69,30.04,29.97,12,3,13,0.38
2013-8-9,87.0,79.0,74.0,74.0,72.2,70.0,92,80,59,29.99,29.78,9,4,17,0.22
2013-8-10,86.0,78.0,69.0,72.0,61.4,56.0,84,59,38,30.03,29.83,11,4,14,0.01
2013-8-11,84.0,74.1,64.0,64.0,55.5,49.0,71,54,35,30.09,30.00,6,2,10,0.00
2013-8-12,82.0,74.9,69.0,69.0,64.9,58.0,88,72,44,30.01,29.90,5,1,9,0.08
2013-8-13,77.0,72.9,70.0,72.0,65.5,-99.9,92,80,66,29.91,29.68,5,2,10,0.25
2013-8-14,76.0,67.5,60.0,65.0,48.9,-99.9,84,54,41,30.00,29.73,16,5,23,0.02
2013-8-15,80.0,61.6,57.0,52.0,31.7,-99.9,74,47,27,30.11,30.03,8,2,11,0.03
2013-8-16,81.0,69.1,60.0,57.0,47.7,-99.9,85,53,30,30.18,30.09,5,2,10,0.03
2013-8-17,84.0,73.4,60.0,57.0,54.1,51.0,80,53,34,30.24,30.18,6,2,9,0.03
2013-8-18,77.0,70.8,67.0,62.0,53.3,-99.9,72,57,38,30.24,30.11,7,1,8,0.03
2013-8-19,80.0,68.2,65.0,64.0,45.2,-99.9,85,64,48,30.10,30.01,6,2,10,0.00
2013-8-20,84.0,70.7,65.0,65.0,63.7,62.0,90,80,52,30.09,30.02,3,0,7,0.00
2013-8-21,84.0,82.1,78.0,62.0,60.0,58.0,58,47,42,30.05,30.03,2,1,6,0.00
2013-8-22,79.0,75.1,72.0,71.0,69.3,63.0,90,82,58,30.04,29.85,8,2,12,0.32
2013-8-23,83.0,75.5,70.0,70.0,58.6,49.0,90,59,32,30.07,29.84,12,3,14,0.01
2013-8-24,80.0,70.9,63.0,58.0,51.9,47.0,69,53,33,30.31,30.07,8,3,12,0.00
2013-8-25,84.0,72.3,60.0,58.0,51.4,-99.9,88,54,27,30.36,30.21,8,2,12,0.00
2013-8-26,83.0,75.1,68.0,69.0,59.2,54.0,81,58,48,30.21,29.90,14,3,14,0.03
2013-8-27,88.0,77.1,73.0,69.0,66.5,63.0,83,71,45,29.90,29.80,11,4,15,0.03
2013-8-28,75.0,74.4,73.0,73.0,71.3,70.0,92,90,88,29.87,29.83,3,1,6,0.63
2013-8-29,80.0,73.8,71.0,70.0,66.8,63.0,93,79,61,30.01,29.86,8,2,10,0.03
2013-8-30,86.0,76.0,69.0,69.0,65.8,64.0,83,72,49,30.01,29.85,10,3,12,0.00
2013-8-31,88.0,79.7,72.0,71.0,69.4,67.0,86,72,55,29.86,29.77,10,3,12,0.00
2013-9-1,84.0,78.0,75.0,73.0,68.3,-99.9,88,75,65,29.84,29.78,5,2,10,0.12
2013-9-2,83.0,76.9,75.0,74.0,72.1,69.0,92,85,69,29.80,29.70,4,1,8,0.45
2013-9-3,83.0,75.5,70.0,71.0,63.1,54.0,92,68,42,29.87,29.69,9,3,14,0.02
2013-9-4,83.0,74.1,65.0,58.0,55.3,51.0,75,54,37,29.98,29.86,10,4,13,0.01
2013-9-5,81.0,71.4,64.0,59.0,50.9,39.0,76,51,27,30.12,29.91,11,4,19,0.00
2013-9-6,74.0,64.2,55.0,48.0,41.6,35.0,61,45,27,30.24,30.12,10,2,11,0.00
2013-9-7,80.0,68.8,56.0,51.0,46.1,41.0,76,47,27,30.12,29.88,8,2,12,0.00
2013-9-8,83.0,71.8,64.0,62.0,50.4,-99.9,69,50,30,30.05,29.80,14,5,18,0.00
2013-9-9,73.0,65.2,56.0,59.0,47.8,42.0,72,54,36,30.21,30.05,14,3,14,0.00
2013-9-10,88.0,77.2,68.0,72.0,66.3,58.0,82,70,55,30.13,30.03,10,4,14,0.00
2013-9-11,96.0,85.7,76.0,73.0,71.5,70.0,86,64,44,30.09,29.96,10,3,12,0.00
2013-9-12,88.0,79.0,71.0,73.0,69.7,68.0,90,74,57,29.98,29.67,10,3,15,0.30
2013-9-13,78.0,68.9,60.0,67.0,57.8,47.0,91,70,45,29.83,29.62,16,5,21,0.38
2013-9-14,66.0,59.4,54.0,48.0,45.1,43.0,72,60,47,30.10,29.83,11,5,16,0.08
2013-9-15,73.0,58.6,49.0,50.0,41.7,-99.9,80,59,29,30.18,30.06,3,1,9,0.00
2013-9-16,74.0,65.0,60.0,57.0,51.8,48.0,85,64,43,30.21,30.00,11,3,14,0.02
2013-9-17,64.0,57.4,48.0,46.0,37.9,34.0,64,49,36,30.41,30.22,17,3,17,0.02
2013-9-18,55.0,50.3,47.0,45.0,42.5,42.0,84,75,61,30.33,30.30,2,0,3,0.00
2013-9-19,79.0,63.8,50.0,56.0,48.5,42.0,87,62,28,30.18,30.06,4,2,10,0.00
2013-9-20,79.0,66.8,55.0,60.0,55.5,52.0,89,69,44,30.07,29.98,10,3,15,0.00
2013-9-21,75.0,68.0,57.0,67.0,61.1,54.0,91,79,63,29.99,29.65,15,4,18,0.06
2013-9-22,70.0,62.8,56.0,67.0,48.7,-99.9,93,65,39,29.90,29.63,16,5,18,0.60
2013-9-23,67.0,56.9,50.0,43.0,40.4,38.0,68,55,38,30.03,29.90,10,4,14,0.01
2013-9-24,66.0,54.4,47.0,44.0,42.0,40.0,77,64,44,30.03,29.88,4,2,6,0.00
2013-9-25,75.0,62.0,49.0,50.0,44.0,40.0,80,54,31,29.94,29.86,6,1,7,0.00
2013-9-26,70.0,62.4,55.0,56.0,53.5,50.0,86,73,57,30.07,29.91,7,2,12,0.00
2013-9-27,69.0,61.7,55.0,52.0,50.0,49.0,81,66,52,30.24,30.08,5,3,10,0.00
2013-9-28,73.0,63.9,55.0,53.0,50.9,46.0,85,65,39,30.31,30.23,9,2,12,0.00
2013-9-29,73.0,61.2,54.0,57.0,50.3,-99.9,91,71,46,30.23,30.06,5,2,10,0.00
2013-9-30,74.0,63.0,53.0,54.0,51.4,48.0,92,69,41,30.06,29.95,3,1,8,0.00
2013-10-1,73.0,69.1,62.0,58.0,56.9,53.0,74,65,58,29.97,29.91,4,2,8,0.00
2013-10-2,85.0,72.9,59.0,61.0,57.5,53.0,84,60,41,29.99,29.89,9,2,12,0.00
2013-10-3,80.0,70.6,59.0,60.0,55.0,43.0,84,61,28,30.09,29.99,3,1,8,0.00
2013-10-4,87.0,75.7,64.0,66.0,60.8,55.0,78,61,41,30.04,29.94,7,2,11,0.00
2013-10-5,76.0,68.4,64.0,65.0,62.7,61.0,90,82,65,30.07,29.98,6,2,10,0.05
2013-10-6,70.0,67.5,66.0,66.0,64.2,62.0,92,89,86,30.07,30.01,5,2,10,0.05
2013-10-7,78.0,67.7,60.0,70.0,63.7,50.0,93,87,69,30.01,29.73,10,2,25,0.35
2013-10-8,68.0,59.9,53.0,50.0,44.0,38.0,80,57,34,30.30,29.95,9,2,11,0.01
2013-10-9,62.0,56.9,51.0,49.0,44.2,39.0,73,62,56,30.37,30.27,10,2,11,0.00
2013-10-10,62.0,57.4,53.0,53.0,49.5,45.0,84,75,70,30.27,30.06,9,3,11,0.02
2013-10-11,68.0,63.5,60.0,60.0,56.0,52.0,89,77,70,30.06,29.98,9,3,11,0.01
2013-10-12,72.0,65.2,59.0,56.0,46.5,33.0,73,52,25,30.27,30.04,13,4,16,0.00
2013-10-13,64.0,58.8,56.0,53.0,47.3,-99.9,78,68,60,30.36,30.26,10,3,13,0.00
2013-10-14,66.0,57.7,50.0,51.0,47.8,43.0,87,71,44,30.36,30.22,4,1,10,0.00
2013-10-15,72.0,59.3,50.0,53.0,49.2,46.0,92,71,44,30.25,30.10,6,1,9,0.00
2013-10-16,68.0,60.6,54.0,58.0,53.6,48.0,88,78,65,30.10,29.92,4,1,8,0.00
2013-10-17,75.0,66.0,61.0,62.0,59.6,57.0,92,81,57,29.90,29.67,8,2,10,0.01
2013-10-18,70.0,63.2,56.0,62.0,46.8,40.0,87,57,35,29.96,29.65,9,3,14,0.01
2013-10-19,64.0,56.5,47.0,54.0,44.5,39.0,83,65,40,29.96,29.72,6,2,12,0.00
2013-10-20,64.0,56.5,49.0,53.0,35.4,-99.9,84,49,28,30.03,29.72,12,3,17,0.00
2013-10-21,68.0,56.4,44.0,44.0,37.4,31.0,76,52,27,30.13,29.97,10,2,12,0.00
2013-10-22,67.0,56.8,50.0,49.0,44.7,35.0,82,65,47,29.97,29.74,6,2,11,0.00
2013-10-23,55.0,49.2,45.0,38.0,34.9,32.0,70,58,43,29.79,29.59,10,2,16,0.00
2013-10-24,55.0,47.2,41.0,34.0,29.0,22.0,72,51,30,29.98,29.73,12,4,16,0.00
2013-10-25,54.0,48.9,41.0,32.0,28.8,25.0,65,46,34,30.21,29.98,10,4,16,0.00
2013-10-26,56.0,47.1,36.0,33.0,29.5,25.0,79,53,31,30.21,29.88,9,3,17,0.00
2013-10-27,59.0,51.4,46.0,32.0,28.2,-99.9,56,42,31,30.09,29.83,10,3,15,0.00
2013-10-28,62.0,50.8,39.0,34.0,29.6,-99.9,71,48,29,30.27,30.09,10,2,12,0.00
2013-10-29,57.0,49.2,43.0,34.0,30.9,29.0,62,50,37,30.38,30.27,4,1,10,0.00
2013-10-30,60.0,51.2,43.0,49.0,40.7,31.0,83,68,56,30.33,30.16,4,0,9,0.00
2013-10-31,65.0,57.1,49.0,60.0,52.7,46.0,90,85,73,30.21,29.80,11,1,11,0.08
2013-11-1,70.0,65.6,61.0,63.0,57.4,51.0,92,76,52,29.78,29.54,12,4,19,0.14
2013-11-2,69.0,59.0,53.0,56.0,45.4,37.0,88,63,37,29.77,29.61,5,1,10,0.01
2013-11-3,54.0,45.9,36.0,42.0,29.4,-99.9,74,54,40,30.41,29.77,16,5,17,0.00
2013-11-4,45.0,39.3,33.0,24.0,16.7,12.0,55,41,26,30.63,30.42,9,2,13,0.00
2013-11-5,54.0,46.8,37.0,42.0,33.8,24.0,76,61,53,30.62,30.46,7,1,9,0.00
2013-11-6,60.0,52.8,43.0,50.0,44.2,40.0,89,74,55,30.47,30.06,5,1,10,0.00
2013-11-7,63.0,54.6,43.0,57.0,48.2,30.0,90,80,55,30.05,29.75,10,3,16,0.14
2013-11-8,50.0,44.2,40.0,32.0,26.0,19.0,69,50,34,30.19,29.91,17,4,19,0.02
2013-11-9,50.0,43.7,37.0,32.0,24.2,-99.9,65,49,32,30.27,29.98,6,2,11,0.00
2013-11-10,60.0,49.6,40.0,36.0,31.0,25.0,74,50,31,30.01,29.79,15,6,24,0.00
2013-11-11,54.0,48.4,40.0,31.0,26.6,23.0,55,43,35,30.18,29.93,7,3,15,0.00
2013-11-12,51.0,38.4,31.0,33.0,23.0,14.0,85,55,39,30.27,29.91,17,6,21,0.04
2013-11-13,40.0,33.6,28.0,17.0,13.3,7.0,60,44,26,30.34,30.25,11,5,15,0.01
2013-11-14,53.0,41.4,32.0,19.0,15.7,11.0,57,38,19,30.24,30.12,7,2,17,0.00
2013-11-15,57.0,47.2,36.0,27.0,22.9,17.0,60,39,24,30.21,30.13,6,2,9,0.00
2013-11-16,60.0,50.3,46.0,47.0,38.1,-99.9,91,67,39,30.30,30.20,5,1,10,0.03
2013-11-17,60.0,54.0,46.0,58.0,51.0,44.0,94,90,83,30.25,29.80,3,0,6,0.01
2013-11-18,66.0,59.6,52.0,62.0,37.7,23.0,95,50,26,29.78,29.58,15,4,18,0.26
2013-11-19,50.0,44.0,36.0,28.0,22.7,20.0,52,43,37,30.31,29.76,17,7,22,0.01
2013-11-20,43.0,37.0,32.0,21.0,14.5,6.0,59,41,21,30.58,30.31,10,2,15,0.00
2013-11-21,51.0,42.3,31.0,42.0,29.2,17.0,73,60,47,30.59,30.38,4,2,9,0.00
2013-11-22,57.0,52.8,49.0,49.0,45.4,40.0,89,76,69,30.37,29.89,6,2,10,0.03
2013-11-23,54.0,41.8,32.0,48.0,21.1,-99.9,80,47,28,30.00,29.88,16,8,23,0.02
2013-11-24,32.0,26.1,23.0,8.0,1.4,-3.0,41,34,24,30.33,29.97,18,10,25,0.00
2013-11-25,36.0,29.6,22.0,12.0,8.4,4.0,50,41,33,30.45,30.30,7,3,12,0.00
2013-11-26,44.0,36.4,33.0,42.0,23.1,12.0,94,61,39,30.30,29.81,5,2,9,0.50
2013-11-27,61.0,46.3,36.0,60.0,41.9,21.0,95,85,55,29.77,29.35,15,7,20,2.12
2013-11-28,36.0,32.5,30.0,22.0,10.8,5.0,56,41,28,30.44,29.70,19,7,23,0.01
2013-11-29,40.0,33.6,29.0,18.0,16.1,11.0,58,48,40,30.71,30.44,10,2,12,0.00
2013-11-30,37.0,31.0,24.0,26.0,15.1,-99.9,66,54,41,30.73,30.37,6,2,8,0.00
2013-12-1,49.0,41.9,34.0,32.0,28.2,25.0,75,59,44,30.37,29.99,4,1,9,0.00
2013-12-2,48.0,43.2,40.0,36.0,31.8,27.0,83,64,55,29.99,29.85,3,0,4,0.00
2013-12-3,54.0,43.7,36.0,37.0,33.8,31.0,90,71,47,29.97,29.85,4,1,6,0.00
2013-12-4,50.0,44.5,38.0,42.0,36.5,33.0,82,74,58,30.11,29.97,4,1,5,0.00
2013-12-5,57.0,52.3,47.0,54.0,49.2,41.0,94,90,76,30.09,29.92,3,0,5,0.04
2013-12-6,55.0,47.4,38.0,54.0,44.6,34.0,95,90,86,30.11,29.85,10,3,12,0.96
2013-12-7,41.0,36.4,32.0,34.0,25.3,-99.9,91,68,47,30.49,30.07,17,4,19,0.83
2013-12-8,33.0,29.9,28.0,28.0,17.8,13.0,91,62,50,30.57,30.36,8,3,11,0.01
2013-12-9,38.0,34.1,30.0,36.0,31.8,28.0,94,92,87,30.35,29.93,9,2,10,0.44
2013-12-10,35.0,33.1,29.0,32.0,28.6,17.0,91,84,60,30.09,29.85,6,2,9,0.01
2013-12-11,33.0,29.1,25.0,17.0,14.6,12.0,62,55,42,30.29,30.11,10,3,15,0.01
2013-12-12,28.0,25.2,22.0,15.0,6.4,2.0,60,45,33,30.33,30.16,11,4,17,0.00
2013-12-13,35.0,29.0,21.0,16.0,10.9,4.0,54,46,39,30.30,30.10,12,2,17,0.00
2013-12-14,32.0,24.4,20.0,26.0,16.9,-99.9,93,76,52,30.47,29.83,8,3,13,0.00
2013-12-15,39.0,34.4,30.0,32.0,28.0,20.0,96,79,58,29.82,29.48,14,4,19,0.00
2013-12-16,32.0,27.8,23.0,22.0,11.0,6.0,65,49,37,30.21,29.81,15,5,16,0.00
2013-12-17,29.0,25.3,22.0,26.0,18.5,8.0,88,76,53,30.21,29.91,8,2,10,0.00
2013-12-18,37.0,29.9,21.0,23.0,19.5,16.0,81,66,49,30.13,29.91,10,3,14,0.00
2013-12-19,44.0,35.4,27.0,30.0,23.6,18.0,74,62,47,30.15,30.00,5,2,10,0.00
2013-12-20,50.0,43.2,34.0,35.0,31.3,29.0,84,64,48,30.08,29.93,6,1,9,0.00
2013-12-21,61.0,51.4,44.0,53.0,43.3,-99.9,91,77,64,29.97,29.87,6,2,10,0.00
2013-12-22,70.0,65.0,56.0,62.0,57.7,52.0,89,77,67,29.94,29.78,16,5,19,0.00
2013-12-23,61.0,55.2,42.0,58.0,51.2,30.0,95,87,63,30.11,29.87,10,2,20,0.29
2013-12-24,42.0,36.0,27.0,30.0,20.5,9.0,65,53,39,30.30,30.07,12,5,23,0.01
2013-12-25,29.0,24.7,19.0,15.0,5.9,3.0,56,44,36,30.50,30.31,13,4,21,0.00
2013-12-26,36.0,32.2,29.0,25.0,20.1,14.0,66,61,54,30.39,30.13,5,2,13,0.00
2013-12-27,41.0,35.1,30.0,23.0,19.5,15.0,66,53,39,30.32,30.23,9,2,11,0.00
2013-12-28,55.0,41.9,31.0,27.0,21.7,-99.9,67,48,30,30.26,30.04,8,3,13,0.00
2013-12-29,46.0,42.2,41.0,40.0,33.3,25.0,94,73,44,30.04,29.40,13,3,17,1.30
2013-12-30,44.0,36.1,23.0,37.0,25.9,8.0,88,68,47,30.17,29.66,11,4,17,0.01
2013-12-31,32.0,26.2,21.0,22.0,10.4,5.0,70,51,39,30.25,30.04,8,3,15,0.00
2014-1-1,33.0,29.4,24.0,19.0,13.7,5.0,58,52,41,30.38,30.24,10,2,10,0.00
2014-1-2,32.0,24.9,15.0,22.0,18.3,11.0,86,76,57,30.23,29.66,10,5,17,0.00